createdAt,value
2023-02-16T00:00:25.914Z,100.00
2023-02-16T00:02:53.439Z,100.00
2023-02-16T00:05:33.868Z,100.00
2023-02-16T00:08:02.101Z,100.00
2023-02-16T00:10:35.803Z,100.00
2023-02-16T00:13:36.786Z,100.00
2023-02-16T00:16:03.708Z,100.00
2023-02-16T00:18:30.481Z,100.00
2023-02-16T00:20:57.210Z,100.00
2023-02-16T00:23:23.969Z,100.00
2023-02-16T00:25:50.926Z,100.00
2023-02-16T00:28:21.037Z,100.00
2023-02-16T00:30:50.200Z,100.00
2023-02-16T00:33:20.741Z,100.00
2023-02-16T00:35:48.324Z,100.00
2023-02-16T00:38:15.329Z,100.00
2023-02-16T00:40:43.855Z,100.00
2023-02-16T00:43:27.538Z,100.00
2023-02-16T00:45:56.346Z,100.00
2023-02-16T00:48:24.862Z,100.00
2023-02-16T00:50:51.662Z,100.00
2023-02-16T00:53:18.472Z,100.00
2023-02-16T00:55:45.452Z,100.00
2023-02-16T00:58:26.564Z,100.00
2023-02-16T01:01:07.922Z,100.00
2023-02-16T01:03:35.018Z,100.00
2023-02-16T01:06:23.637Z,100.00
2023-02-16T01:09:09.500Z,100.00
2023-02-16T01:11:36.320Z,100.00
2023-02-16T01:14:03.209Z,100.00
2023-02-16T01:16:40.911Z,100.00
2023-02-16T01:19:10.569Z,100.00
2023-02-16T01:21:37.314Z,100.00
2023-02-16T01:24:04.181Z,100.00
2023-02-16T01:26:39.031Z,100.00
2023-02-16T01:29:06.240Z,100.00
2023-02-16T01:31:33.282Z,100.00
2023-02-16T01:34:00.195Z,100.00
2023-02-16T01:36:36.418Z,100.00
2023-02-16T01:39:03.785Z,100.00
2023-02-16T01:42:15.134Z,100.00
2023-02-16T01:45:01.689Z,100.00
2023-02-16T01:47:44.488Z,100.00
2023-02-16T01:50:25.456Z,100.00
2023-02-16T01:53:03.311Z,100.00
2023-02-16T01:55:39.101Z,100.00
2023-02-16T01:58:26.492Z,100.00
2023-02-16T02:00:53.248Z,100.00
2023-02-16T02:04:00.179Z,100.00
2023-02-16T02:06:37.407Z,100.00
2023-02-16T02:09:18.220Z,100.00
2023-02-16T02:12:09.215Z,100.00
2023-02-16T02:14:39.905Z,100.00
2023-02-16T02:17:16.019Z,100.00
2023-02-16T02:20:16.551Z,100.00
2023-02-16T02:23:32.648Z,100.00
2023-02-16T02:26:43.384Z,100.00
2023-02-16T02:29:49.108Z,100.00
2023-02-16T02:32:38.464Z,100.00
2023-02-16T02:35:38.477Z,100.00
2023-02-16T02:38:39.442Z,100.00
2023-02-16T02:41:23.805Z,100.00
2023-02-16T02:44:06.200Z,100.00
2023-02-16T02:46:36.450Z,100.00
2023-02-16T02:49:03.788Z,100.00
2023-02-16T02:51:30.863Z,100.00
2023-02-16T02:54:36.064Z,100.00
2023-02-16T02:57:38.136Z,100.00
2023-02-16T03:00:40.616Z,100.00
2023-02-16T03:03:30.134Z,100.00
2023-02-16T03:06:09.692Z,100.00
2023-02-16T03:08:42.512Z,100.00
2023-02-16T03:11:33.449Z,100.00
2023-02-16T03:14:16.873Z,100.00
2023-02-16T03:17:29.548Z,100.00
2023-02-16T03:20:18.472Z,100.00
2023-02-16T03:23:04.675Z,100.00
2023-02-16T03:25:55.087Z,100.00
2023-02-16T03:28:45.827Z,100.00
2023-02-16T03:31:20.539Z,100.00
2023-02-16T03:33:54.454Z,100.00
2023-02-16T03:36:29.434Z,100.00
2023-02-16T03:38:58.330Z,100.00
2023-02-16T03:41:26.866Z,100.00
2023-02-16T03:43:53.666Z,100.00
2023-02-16T03:46:20.446Z,100.00
2023-02-16T03:48:47.292Z,100.00
2023-02-16T03:51:14.515Z,100.00
2023-02-16T03:53:41.269Z,100.00
2023-02-16T03:56:08.249Z,100.00
2023-02-16T03:58:35.134Z,100.00
2023-02-16T04:01:02.338Z,100.00
2023-02-16T04:03:29.568Z,100.00
2023-02-16T04:05:56.444Z,100.00
2023-02-16T04:08:24.109Z,100.00
2023-02-16T04:10:50.974Z,100.00
2023-02-16T04:13:17.796Z,100.00
2023-02-16T04:15:44.645Z,100.00
2023-02-16T04:18:11.451Z,100.00
2023-02-16T04:20:38.212Z,100.00
2023-02-16T04:23:05.441Z,100.00
2023-02-16T04:25:32.331Z,100.00
2023-02-16T04:27:59.964Z,100.00
2023-02-16T04:30:31.150Z,100.00
2023-02-16T04:32:59.232Z,100.00
2023-02-16T04:35:26.398Z,100.00
2023-02-16T04:37:53.234Z,100.00
2023-02-16T04:40:20.168Z,100.00
2023-02-16T04:42:47.122Z,100.00
2023-02-16T04:45:14.743Z,100.00
2023-02-16T04:47:42.196Z,100.00
2023-02-16T04:50:10.412Z,100.00
2023-02-16T04:52:38.116Z,100.00
2023-02-16T04:55:07.326Z,100.00
2023-02-16T04:57:34.249Z,100.00
2023-02-16T05:00:01.048Z,100.00
2023-02-16T05:02:27.911Z,100.00
2023-02-16T05:04:54.746Z,100.00
2023-02-16T05:07:21.513Z,100.00
2023-02-16T05:09:48.326Z,100.00
2023-02-16T05:12:33.503Z,100.00
2023-02-16T05:15:00.557Z,100.00
2023-02-16T05:17:28.392Z,100.00
2023-02-16T05:19:59.810Z,100.00
2023-02-16T05:22:34.251Z,100.00
2023-02-16T05:25:02.053Z,100.00
2023-02-16T05:27:31.124Z,100.00
2023-02-16T05:29:59.056Z,100.00
2023-02-16T05:32:26.022Z,100.00
2023-02-16T05:34:52.914Z,100.00
2023-02-16T05:37:20.055Z,100.00
2023-02-16T05:39:47.043Z,100.00
2023-02-16T05:42:14.088Z,100.00
2023-02-16T05:44:40.873Z,100.00
2023-02-16T05:47:07.717Z,100.00
2023-02-16T05:49:34.591Z,100.00
2023-02-16T05:52:01.396Z,100.00
2023-02-16T05:54:28.501Z,100.00
2023-02-16T05:56:55.773Z,100.00
2023-02-16T05:59:23.056Z,100.00
2023-02-16T06:01:52.136Z,100.00
2023-02-16T06:04:21.181Z,100.00
2023-02-16T06:06:48.520Z,100.00
2023-02-16T06:09:15.756Z,100.00
2023-02-16T06:11:43.481Z,100.00
2023-02-16T06:14:19.605Z,100.00
2023-02-16T06:16:49.962Z,100.00
2023-02-16T06:19:19.597Z,100.00
2023-02-16T06:21:47.134Z,100.00
2023-02-16T06:24:15.036Z,100.00
2023-02-16T06:26:42.375Z,100.00
2023-02-16T06:29:10.505Z,100.00
2023-02-16T06:31:37.505Z,100.00
2023-02-16T06:34:05.330Z,100.00
2023-02-16T06:36:33.106Z,100.00
2023-02-16T06:39:00.165Z,100.00
2023-02-16T06:41:35.519Z,100.00
2023-02-16T06:44:05.982Z,100.00
2023-02-16T06:46:33.457Z,100.00
2023-02-16T06:49:00.937Z,100.00
2023-02-16T06:51:28.333Z,100.00
2023-02-16T06:53:55.444Z,100.00
2023-02-16T06:56:22.386Z,100.00
2023-02-16T06:58:49.866Z,100.00
2023-02-16T07:01:23.211Z,100.00
2023-02-16T07:03:52.105Z,100.00
2023-02-16T07:06:20.270Z,100.00
2023-02-16T07:08:47.350Z,100.00
2023-02-16T07:11:14.611Z,100.00
2023-02-16T07:13:41.570Z,100.00
2023-02-16T07:16:09.254Z,100.00
2023-02-16T07:18:36.460Z,100.00
2023-02-16T07:21:04.140Z,100.00
2023-02-16T07:23:31.218Z,100.00
2023-02-16T07:25:58.151Z,100.00
2023-02-16T07:28:25.589Z,100.00
2023-02-16T07:30:52.511Z,100.00
2023-02-16T07:33:20.419Z,100.00
2023-02-16T07:35:47.224Z,100.00
2023-02-16T07:38:14.367Z,100.00
2023-02-16T07:40:41.918Z,100.00
2023-02-16T07:43:08.722Z,100.00
2023-02-16T07:45:35.949Z,100.00
2023-02-16T07:48:03.028Z,100.00
2023-02-16T07:50:29.869Z,100.00
2023-02-16T07:52:56.724Z,100.00
2023-02-16T07:55:23.606Z,100.00
2023-02-16T07:57:54.604Z,100.00
2023-02-16T08:00:22.354Z,100.00
2023-02-16T08:02:49.862Z,100.00
2023-02-16T08:05:17.511Z,100.00
2023-02-16T08:07:46.597Z,100.00
2023-02-16T08:10:14.835Z,100.00
2023-02-16T08:12:44.609Z,100.00
2023-02-16T08:15:12.263Z,100.00
2023-02-16T08:17:39.316Z,100.00
2023-02-16T08:20:08.525Z,100.00
2023-02-16T08:22:37.082Z,100.00
2023-02-16T08:25:06.943Z,99.36
2023-02-16T08:27:34.696Z,98.64
2023-02-16T08:30:01.737Z,97.17
2023-02-16T08:32:28.646Z,96.09
2023-02-16T08:34:57.407Z,94.46
2023-02-16T08:37:24.951Z,93.73
2023-02-16T08:39:52.056Z,92.73
2023-02-16T08:42:18.857Z,92.37
2023-02-16T08:44:46.279Z,91.46
2023-02-16T08:47:13.536Z,90.89
2023-02-16T08:49:40.466Z,89.23
2023-02-16T08:52:07.326Z,88.30
2023-02-16T08:54:34.571Z,87.94
2023-02-16T08:57:02.996Z,87.68
2023-02-16T08:59:31.057Z,86.89
2023-02-16T09:01:59.131Z,85.18
2023-02-16T09:04:29.203Z,85.12
2023-02-16T09:06:58.271Z,84.13
2023-02-16T09:09:26.687Z,83.34
2023-02-16T09:11:53.636Z,82.04
2023-02-16T09:14:22.902Z,82.50
2023-02-16T09:16:49.992Z,82.01
2023-02-16T09:19:20.558Z,81.57
2023-02-16T09:21:50.736Z,81.03
2023-02-16T09:24:18.225Z,80.56
2023-02-16T09:26:45.094Z,80.43
2023-02-16T09:29:14.001Z,80.02
2023-02-16T09:31:44.176Z,79.78
2023-02-16T09:34:22.637Z,78.78
2023-02-16T09:36:50.672Z,77.67
2023-02-16T09:39:18.506Z,77.53
2023-02-16T09:42:14.890Z,76.99
2023-02-16T09:44:58.514Z,76.26
2023-02-16T09:47:33.640Z,75.79
2023-02-16T09:50:16.263Z,74.42
2023-02-16T09:53:13.831Z,74.20
2023-02-16T09:56:29.551Z,73.69
2023-02-16T09:59:14.692Z,73.67
2023-02-16T10:02:11.382Z,73.51
2023-02-16T10:04:51.591Z,73.09
2023-02-16T10:07:56.250Z,72.67
2023-02-16T10:11:01.813Z,71.33
2023-02-16T10:13:53.353Z,72.84
2023-02-16T10:16:31.801Z,70.36
2023-02-16T10:19:02.782Z,71.85
2023-02-16T10:21:31.600Z,70.87
2023-02-16T10:24:04.962Z,70.72
2023-02-16T10:26:51.765Z,71.69
2023-02-16T10:29:23.944Z,74.00
2023-02-16T10:32:15.329Z,73.48
2023-02-16T10:35:13.241Z,73.88
2023-02-16T10:38:00.359Z,73.02
2023-02-16T10:40:59.044Z,70.28
2023-02-16T10:44:13.162Z,73.72
2023-02-16T10:46:47.820Z,72.34
2023-02-16T10:49:17.037Z,71.24
2023-02-16T10:51:50.106Z,72.05
2023-02-16T10:54:26.097Z,71.95
2023-02-16T10:56:57.298Z,71.42
2023-02-16T10:59:26.328Z,72.90
2023-02-16T11:02:00.116Z,71.87
2023-02-16T11:05:01.931Z,69.92
2023-02-16T11:07:31.382Z,68.66
2023-02-16T11:10:17.961Z,67.37
2023-02-16T11:12:45.010Z,66.28
2023-02-16T11:15:21.172Z,66.92
2023-02-16T11:18:06.320Z,65.00
2023-02-16T11:20:54.811Z,67.67
2023-02-16T11:23:31.738Z,65.28
2023-02-16T11:26:11.685Z,59.99
2023-02-16T11:28:44.294Z,59.40
2023-02-16T11:31:17.596Z,55.87
2023-02-16T11:34:29.173Z,59.99
2023-02-16T11:37:21.339Z,55.45
2023-02-16T11:40:12.861Z,55.12
2023-02-16T11:42:51.109Z,52.64
2023-02-16T11:45:34.562Z,52.78
2023-02-16T11:48:12.522Z,56.69
2023-02-16T11:50:56.105Z,52.90
2023-02-16T11:53:28.358Z,59.08
2023-02-16T11:56:27.714Z,50.90
2023-02-16T11:59:13.782Z,53.56
2023-02-16T12:02:03.251Z,55.48
2023-02-16T12:04:59.072Z,48.71
2023-02-16T12:08:06.573Z,50.00
2023-02-16T12:10:38.970Z,45.01
2023-02-16T12:13:51.460Z,50.25
2023-02-16T12:16:29.466Z,51.55
2023-02-16T12:19:08.781Z,49.21
2023-02-16T12:21:47.254Z,49.71
2023-02-16T12:24:33.371Z,49.35
2023-02-16T12:27:16.757Z,53.47
2023-02-16T12:29:53.655Z,50.74
2023-02-16T12:32:59.186Z,48.48
2023-02-16T12:36:09.565Z,45.61
2023-02-16T12:38:53.826Z,41.73
2023-02-16T12:41:39.859Z,41.01
2023-02-16T12:44:18.977Z,42.69
2023-02-16T12:47:00.678Z,46.06
2023-02-16T12:49:55.175Z,45.81
2023-02-16T12:52:41.852Z,50.24
2023-02-16T12:55:29.475Z,53.48
2023-02-16T12:58:08.063Z,51.58
2023-02-16T13:00:58.501Z,49.82
2023-02-16T13:03:38.168Z,54.03
2023-02-16T13:07:06.793Z,48.09
2023-02-16T13:09:44.091Z,54.53
2023-02-16T13:12:47.494Z,57.31
2023-02-16T13:15:27.395Z,52.45
2023-02-16T13:18:05.269Z,51.99
2023-02-16T13:20:32.889Z,49.50
2023-02-16T13:23:36.367Z,46.79
2023-02-16T13:26:34.198Z,44.39
2023-02-16T13:29:22.949Z,42.04
2023-02-16T13:32:20.167Z,40.45
2023-02-16T13:35:30.040Z,41.49
2023-02-16T13:38:49.069Z,44.45
2023-02-16T13:41:55.563Z,42.92
2023-02-16T13:44:42.373Z,43.70
2023-02-16T13:47:23.279Z,43.07
2023-02-16T13:50:02.899Z,46.49
2023-02-16T13:52:41.102Z,46.50
2023-02-16T13:55:34.454Z,44.08
2023-02-16T13:58:14.605Z,46.27
2023-02-16T14:00:49.980Z,45.19
2023-02-16T14:03:16.755Z,46.61
2023-02-16T14:05:47.842Z,47.32
2023-02-16T14:08:30.511Z,47.15
2023-02-16T14:11:04.228Z,49.25
2023-02-16T14:13:36.841Z,46.58
2023-02-16T14:16:29.791Z,48.30
2023-02-16T14:19:18.818Z,47.35
2023-02-16T14:21:49.812Z,48.17
2023-02-16T14:24:26.012Z,49.90
2023-02-16T14:27:11.715Z,50.80
2023-02-16T14:29:40.723Z,49.12
2023-02-16T14:32:33.845Z,50.60
2023-02-16T14:35:18.963Z,52.11
2023-02-16T14:38:02.417Z,49.03
2023-02-16T14:40:35.322Z,49.72
2023-02-16T14:43:17.583Z,49.02
2023-02-16T14:46:18.203Z,49.54
2023-02-16T14:49:30.038Z,50.05
2023-02-16T14:52:08.751Z,50.61
2023-02-16T14:54:57.506Z,52.46
2023-02-16T14:57:37.108Z,52.56
2023-02-16T15:00:21.217Z,52.99
2023-02-16T15:03:23.609Z,52.90
2023-02-16T15:06:05.938Z,53.14
2023-02-16T15:08:48.582Z,51.99
2023-02-16T15:11:18.878Z,53.57
2023-02-16T15:13:46.404Z,52.47
2023-02-16T15:16:16.541Z,52.51
2023-02-16T15:18:56.108Z,55.27
2023-02-16T15:21:30.795Z,52.76
2023-02-16T15:24:00.893Z,54.20
2023-02-16T15:26:35.447Z,52.98
2023-02-16T15:29:27.301Z,53.83
2023-02-16T15:31:55.922Z,54.16
2023-02-16T15:34:34.790Z,54.71
2023-02-16T15:37:19.691Z,54.52
2023-02-16T15:40:03.017Z,54.10
2023-02-16T15:42:35.796Z,54.71
2023-02-16T15:45:35.209Z,54.82
2023-02-16T15:48:38.390Z,54.77
2023-02-16T15:51:33.210Z,55.14
2023-02-16T15:54:13.402Z,55.55
2023-02-16T15:56:47.215Z,55.49
2023-02-16T15:59:35.893Z,55.95
2023-02-16T16:02:22.236Z,56.20
2023-02-16T16:04:57.558Z,56.60
2023-02-16T16:07:35.666Z,57.46
2023-02-16T16:10:15.427Z,57.71
2023-02-16T16:12:43.302Z,58.10
2023-02-16T16:15:22.893Z,59.68
2023-02-16T16:17:52.374Z,60.72
2023-02-16T16:20:29.041Z,61.29
2023-02-16T16:23:06.970Z,62.62
2023-02-16T16:25:47.590Z,62.88
2023-02-16T16:28:35.761Z,62.81
2023-02-16T16:31:18.092Z,63.17
2023-02-16T16:34:07.160Z,62.50
2023-02-16T16:36:57.000Z,62.75
2023-02-16T16:39:29.715Z,62.76
2023-02-16T16:42:24.581Z,63.17
2023-02-16T16:45:04.025Z,64.68
2023-02-16T16:47:49.812Z,64.46
2023-02-16T16:50:18.200Z,66.81
2023-02-16T16:52:51.384Z,68.38
2023-02-16T16:55:26.739Z,70.63
2023-02-16T16:58:05.190Z,71.49
2023-02-16T17:00:36.773Z,72.21
2023-02-16T17:03:07.541Z,71.42
2023-02-16T17:05:38.207Z,71.62
2023-02-16T17:08:05.367Z,73.26
2023-02-16T17:10:32.422Z,72.06
2023-02-16T17:13:00.804Z,71.74
2023-02-16T17:15:36.263Z,72.04
2023-02-16T17:18:04.771Z,73.44
2023-02-16T17:20:32.621Z,75.39
2023-02-16T17:23:04.447Z,74.17
2023-02-16T17:25:34.519Z,75.69
2023-02-16T17:28:03.622Z,77.18
2023-02-16T17:30:31.513Z,77.02
2023-02-16T17:32:58.819Z,75.09
2023-02-16T17:35:26.037Z,74.45
2023-02-16T17:37:53.031Z,73.07
2023-02-16T17:40:23.524Z,72.54
2023-02-16T17:42:51.551Z,72.17
2023-02-16T17:45:22.176Z,72.00
2023-02-16T17:47:52.531Z,71.97
2023-02-16T17:50:21.065Z,71.99
2023-02-16T17:52:48.233Z,72.68
2023-02-16T17:55:16.029Z,71.42
2023-02-16T17:57:43.111Z,71.19
2023-02-16T18:00:18.008Z,71.28
2023-02-16T18:02:45.188Z,71.54
2023-02-16T18:05:12.330Z,71.49
2023-02-16T18:07:39.318Z,71.64
2023-02-16T18:10:07.298Z,71.58
2023-02-16T18:12:34.200Z,71.88
2023-02-16T18:15:00.998Z,72.20
2023-02-16T18:17:28.312Z,73.30
2023-02-16T18:19:56.480Z,73.43
2023-02-16T18:22:23.533Z,72.69
2023-02-16T18:24:50.952Z,72.85
2023-02-16T18:27:18.058Z,73.41
2023-02-16T18:29:45.101Z,73.71
2023-02-16T18:32:11.890Z,73.93
2023-02-16T18:34:38.639Z,74.22
2023-02-16T18:37:05.404Z,73.87
2023-02-16T18:39:32.325Z,74.70
2023-02-16T18:41:59.140Z,74.83
2023-02-16T18:44:25.997Z,74.76
2023-02-16T18:46:52.856Z,74.81
2023-02-16T18:49:19.696Z,75.39
2023-02-16T18:51:46.700Z,77.14
2023-02-16T18:54:13.511Z,77.97
2023-02-16T18:56:41.187Z,78.71
2023-02-16T18:59:08.168Z,78.84
2023-02-16T19:01:35.241Z,77.66
2023-02-16T19:04:04.351Z,78.25
2023-02-16T19:06:31.802Z,78.08
2023-02-16T19:08:59.898Z,78.33
2023-02-16T19:11:28.752Z,78.87
2023-02-16T19:13:55.565Z,78.75
2023-02-16T19:16:22.791Z,78.75
2023-02-16T19:18:49.658Z,77.91
2023-02-16T19:21:16.651Z,78.02
2023-02-16T19:23:43.735Z,78.70
2023-02-16T19:26:14.853Z,78.78
2023-02-16T19:28:42.734Z,78.83
2023-02-16T19:31:28.917Z,78.06
2023-02-16T19:33:57.755Z,77.74
2023-02-16T19:36:26.762Z,77.74
2023-02-16T19:38:53.732Z,77.94
2023-02-16T19:41:37.569Z,78.90
2023-02-16T19:44:05.586Z,80.52
2023-02-16T19:46:45.083Z,80.35
2023-02-16T19:49:17.473Z,82.83
2023-02-16T19:51:48.002Z,85.02
2023-02-16T19:54:19.913Z,86.03
2023-02-16T19:56:47.600Z,86.76
2023-02-16T19:59:19.438Z,87.10
2023-02-16T20:01:48.890Z,88.57
2023-02-16T20:04:19.772Z,90.84
2023-02-16T20:06:50.065Z,93.44
2023-02-16T20:09:22.030Z,94.08
2023-02-16T20:11:53.955Z,95.17
2023-02-16T20:14:21.139Z,95.60
2023-02-16T20:16:50.277Z,95.16
2023-02-16T20:19:18.519Z,95.42
2023-02-16T20:21:49.317Z,95.65
2023-02-16T20:24:16.403Z,97.77
2023-02-16T20:26:46.212Z,96.59
2023-02-16T20:29:18.054Z,96.23
2023-02-16T20:31:58.667Z,96.27
2023-02-16T20:34:27.798Z,94.54
2023-02-16T20:36:58.605Z,93.56
2023-02-16T20:39:25.635Z,93.06
2023-02-16T20:41:52.655Z,92.45
2023-02-16T20:44:19.962Z,92.76
2023-02-16T20:46:47.145Z,92.32
2023-02-16T20:49:14.418Z,91.30
2023-02-16T20:51:41.381Z,92.65
2023-02-16T20:54:09.152Z,96.92
2023-02-16T20:56:36.285Z,96.28
2023-02-16T20:59:04.677Z,96.58
2023-02-16T21:01:40.548Z,96.73
2023-02-16T21:04:08.455Z,97.32
2023-02-16T21:06:37.006Z,98.63
2023-02-16T21:09:06.165Z,99.82
2023-02-16T21:11:33.301Z,100.00
2023-02-16T21:14:02.123Z,100.00
2023-02-16T21:16:30.061Z,100.00
2023-02-16T21:18:57.499Z,100.00
2023-02-16T21:21:24.685Z,100.00
2023-02-16T21:23:54.192Z,100.00
2023-02-16T21:26:24.628Z,100.00
2023-02-16T21:28:52.168Z,100.00
2023-02-16T21:31:24.274Z,100.00
2023-02-16T21:33:52.123Z,100.00
2023-02-16T21:36:24.527Z,100.00
2023-02-16T21:38:51.824Z,100.00
2023-02-16T21:41:24.354Z,100.00
2023-02-16T21:43:57.055Z,100.00
2023-02-16T21:46:25.509Z,100.00
2023-02-16T21:48:52.465Z,100.00
2023-02-16T21:51:29.682Z,100.00
2023-02-16T21:53:58.099Z,100.00
2023-02-16T21:56:39.078Z,100.00
2023-02-16T21:59:09.625Z,100.00
2023-02-16T22:01:42.519Z,100.00
2023-02-16T22:04:15.219Z,100.00
2023-02-16T22:06:46.128Z,100.00
2023-02-16T22:09:22.773Z,100.00
2023-02-16T22:11:50.883Z,100.00
2023-02-16T22:14:17.992Z,100.00
2023-02-16T22:16:47.543Z,100.00
2023-02-16T22:19:17.663Z,100.00
2023-02-16T22:21:47.681Z,100.00
2023-02-16T22:24:18.175Z,98.38
2023-02-16T22:26:47.817Z,94.35
2023-02-16T22:29:17.222Z,92.74
2023-02-16T22:31:49.858Z,92.25
2023-02-16T22:34:22.004Z,91.12
2023-02-16T22:36:49.525Z,89.98
2023-02-16T22:39:18.654Z,90.74
2023-02-16T22:41:45.799Z,89.82
2023-02-16T22:44:12.925Z,90.49
2023-02-16T22:46:39.854Z,90.56
2023-02-16T22:49:06.636Z,91.91
2023-02-16T22:51:33.507Z,91.40
2023-02-16T22:54:02.261Z,92.15
2023-02-16T22:56:30.707Z,91.03
2023-02-16T22:58:59.481Z,91.57
2023-02-16T23:01:29.642Z,91.87
2023-02-16T23:03:59.448Z,92.62
2023-02-16T23:06:37.189Z,91.44
2023-02-16T23:09:14.055Z,90.99
2023-02-16T23:11:41.291Z,91.74
2023-02-16T23:14:16.404Z,91.59
2023-02-16T23:16:51.969Z,92.38
2023-02-16T23:19:24.061Z,92.72
2023-02-16T23:21:51.701Z,92.65
2023-02-16T23:24:22.992Z,93.83
2023-02-16T23:26:52.956Z,93.25
2023-02-16T23:29:19.888Z,93.36
2023-02-16T23:31:47.809Z,93.22
2023-02-16T23:34:16.674Z,93.32
2023-02-16T23:36:43.984Z,93.33
2023-02-16T23:39:16.145Z,93.04
2023-02-16T23:41:43.119Z,92.81
2023-02-16T23:44:13.207Z,92.86
2023-02-16T23:46:39.997Z,92.95
2023-02-16T23:49:06.848Z,93.20
2023-02-16T23:51:33.856Z,93.20
2023-02-16T23:54:00.602Z,92.89
2023-02-16T23:56:29.006Z,92.74
2023-02-16T23:59:00.589Z,92.90
